This is the latest recevied weather packets stored in our database for station/object Ad4UU. If no packets are shown the sender has not sent any weather packets the latest 10 day(s).
| Time | Temp. | Humidity | Pressure | Rain* | Wind** | Luminosity | Snow |
|---|---|---|---|---|---|---|---|
| 1777468829 | 23.89° C | 84% | 1019.6 hPa | 0 mm | - | - | - |
| 1777468543 | 23.33° C | 85% | 1019.5 hPa | 0 mm | - | - | - |
| 1777468230 | 22.78° C | 87% | 1019.5 hPa | 0 mm | - | - | - |
| 1777467930 | 22.22° C | 88% | 1019.7 hPa | 0 mm | - | - | - |
| 1777463733 | 17.78° C | 98% | 1019.3 hPa | 0 mm | - | - | - |
| 1777457133 | 16.67° C | 97% | 1017.6 hPa | 0 mm | - | - | - |
| 1777456862 | 16.67° C | 97% | 1017.7 hPa | 0 mm | - | - | - |
| 1777455946 | 16.11° C | 96% | 1017.3 hPa | 0 mm | - | - | - |
| 1777454734 | 16.11° C | 95% | 1017.1 hPa | 0 mm | - | - | - |
| 1777453535 | 16.11° C | 95% | 1017.3 hPa | 0 mm | - | - | - |
| 1777452931 | 16.67° C | 95% | 1017.4 hPa | 0 mm | - | - | - |
| 1777451729 | 16.67° C | 95% | 1017.1 hPa | 0 mm | - | - | - |
| 1777451446 | 16.67° C | 95% | 1017.1 hPa | 0 mm | - | - | - |
| 1777450546 | 16.67° C | 95% | 1017 hPa | 0 mm | - | - | - |
| 1777449030 | 16.67° C | 94% | 1017.2 hPa | 0 mm | - | - | - |
| 1777448132 | 17.22° C | 93% | 1017.5 hPa | 0 mm | - | - | - |
| 1777446630 | 17.22° C | 94% | 1017.3 hPa | 0 mm | - | - | - |
| 1777443030 | 19.44° C | 90% | 1017.5 hPa | 0 mm | - | - | - |
| 1777439130 | 18.33° C | 90% | 1018.9 hPa | 0 mm | - | - | - |
| 1777434932 | 21.67° C | 82% | 1018.8 hPa | 0 mm | - | - | - |
| 1777434031 | 22.22° C | 81% | 1018.3 hPa | 0 mm | - | - | - |
| 1777432830 | 22.22° C | 81% | 1018.5 hPa | 0 mm | - | - | - |
| 1777432230 | 22.22° C | 81% | 1018.6 hPa | 0 mm | - | - | - |
| 1777431032 | 21.11° C | 83% | 1018.9 hPa | 0 mm | - | - | - |
| 1777429844 | 22.78° C | 78% | 1019.1 hPa | 0 mm | - | - | - |
* Rain latest hour (hover to see other rain measurements)
** Current wind speed in m/s (hover to see current wind gust speed)